sensor_id;sensor_type;location;lat;lon;timestamp;temperature;humidity
78793;SHT31;68134;51.984;5.652;2023-06-24T00:01:45;20.7;64.6
78793;SHT31;68134;51.984;5.652;2023-06-24T00:04:14;20.7;64.9
78793;SHT31;68134;51.984;5.652;2023-06-24T00:06:47;20.6;64.8
78793;SHT31;68134;51.984;5.652;2023-06-24T00:09:20;20.6;64.8
78793;SHT31;68134;51.984;5.652;2023-06-24T00:11:49;20.6;64.7
78793;SHT31;68134;51.984;5.652;2023-06-24T00:14:17;20.5;64.9
78793;SHT31;68134;51.984;5.652;2023-06-24T00:16:48;20.5;64.9
78793;SHT31;68134;51.984;5.652;2023-06-24T00:19:18;20.5;65.2
78793;SHT31;68134;51.984;5.652;2023-06-24T00:21:48;20.4;65.1
78793;SHT31;68134;51.984;5.652;2023-06-24T00:24:20;20.4;65.1
78793;SHT31;68134;51.984;5.652;2023-06-24T00:26:52;20.4;65.2
78793;SHT31;68134;51.984;5.652;2023-06-24T00:29:21;20.3;65.3
78793;SHT31;68134;51.984;5.652;2023-06-24T00:31:49;20.3;65.4
78793;SHT31;68134;51.984;5.652;2023-06-24T00:34:18;20.3;65.6
78793;SHT31;68134;51.984;5.652;2023-06-24T00:36:47;20.2;65.8
78793;SHT31;68134;51.984;5.652;2023-06-24T00:39:16;20.2;65.9
78793;SHT31;68134;51.984;5.652;2023-06-24T00:41:45;20.2;66.0
78793;SHT31;68134;51.984;5.652;2023-06-24T00:44:14;20.1;66.2
78793;SHT31;68134;51.984;5.652;2023-06-24T00:46:42;20.1;66.3
78793;SHT31;68134;51.984;5.652;2023-06-24T00:49:11;20.1;66.6
78793;SHT31;68134;51.984;5.652;2023-06-24T00:51:41;20.1;67.7
78793;SHT31;68134;51.984;5.652;2023-06-24T00:54:13;20.0;68.1
78793;SHT31;68134;51.984;5.652;2023-06-24T00:56:42;20.0;68.2
78793;SHT31;68134;51.984;5.652;2023-06-24T00:59:13;19.9;68.2
78793;SHT31;68134;51.984;5.652;2023-06-24T01:01:43;19.9;68.1
78793;SHT31;68134;51.984;5.652;2023-06-24T01:04:13;19.9;68.3
78793;SHT31;68134;51.984;5.652;2023-06-24T01:06:42;19.9;68.2
78793;SHT31;68134;51.984;5.652;2023-06-24T01:09:12;19.8;68.7
78793;SHT31;68134;51.984;5.652;2023-06-24T01:11:41;19.8;68.5
78793;SHT31;68134;51.984;5.652;2023-06-24T01:14:09;19.8;68.1
78793;SHT31;68134;51.984;5.652;2023-06-24T01:16:55;19.8;67.9
78793;SHT31;68134;51.984;5.652;2023-06-24T01:19:37;19.8;67.9
78793;SHT31;68134;51.984;5.652;2023-06-24T01:22:19;19.8;67.9
78793;SHT31;68134;51.984;5.652;2023-06-24T01:25:05;19.8;68.0
78793;SHT31;68134;51.984;5.652;2023-06-24T01:28:15;19.7;67.9
78793;SHT31;68134;51.984;5.652;2023-06-24T01:31:19;19.7;68.0
78793;SHT31;68134;51.984;5.652;2023-06-24T01:33:53;19.7;68.0
78793;SHT31;68134;51.984;5.652;2023-06-24T01:36:28;19.7;68.2
78793;SHT31;68134;51.984;5.652;2023-06-24T01:39:02;19.6;68.3
78793;SHT31;68134;51.984;5.652;2023-06-24T01:41:39;19.6;68.2
78793;SHT31;68134;51.984;5.652;2023-06-24T01:44:09;19.6;68.3
78793;SHT31;68134;51.984;5.652;2023-06-24T01:46:43;19.6;68.2
78793;SHT31;68134;51.984;5.652;2023-06-24T01:49:14;19.6;68.2
78793;SHT31;68134;51.984;5.652;2023-06-24T01:51:48;19.5;68.2
78793;SHT31;68134;51.984;5.652;2023-06-24T01:54:20;19.5;68.2
78793;SHT31;68134;51.984;5.652;2023-06-24T01:56:52;19.5;68.5
78793;SHT31;68134;51.984;5.652;2023-06-24T01:59:23;19.5;68.3
78793;SHT31;68134;51.984;5.652;2023-06-24T02:01:54;19.5;68.4
78793;SHT31;68134;51.984;5.652;2023-06-24T02:04:24;19.4;68.7
78793;SHT31;68134;51.984;5.652;2023-06-24T02:06:59;19.4;68.6
78793;SHT31;68134;51.984;5.652;2023-06-24T02:09:29;19.4;68.7
78793;SHT31;68134;51.984;5.652;2023-06-24T02:12:01;19.4;68.9
78793;SHT31;68134;51.984;5.652;2023-06-24T02:14:33;19.3;68.9
78793;SHT31;68134;51.984;5.652;2023-06-24T02:17:05;19.3;69.2
78793;SHT31;68134;51.984;5.652;2023-06-24T02:19:36;19.3;69.2
78793;SHT31;68134;51.984;5.652;2023-06-24T02:22:07;19.3;69.2
78793;SHT31;68134;51.984;5.652;2023-06-24T02:24:38;19.3;69.2
78793;SHT31;68134;51.984;5.652;2023-06-24T02:27:08;19.3;69.4
78793;SHT31;68134;51.984;5.652;2023-06-24T02:29:39;19.2;69.4
78793;SHT31;68134;51.984;5.652;2023-06-24T02:32:09;19.2;69.7
78793;SHT31;68134;51.984;5.652;2023-06-24T02:34:39;19.2;70.3
78793;SHT31;68134;51.984;5.652;2023-06-24T02:37:07;19.2;70.0
78793;SHT31;68134;51.984;5.652;2023-06-24T02:39:36;19.2;70.3
78793;SHT31;68134;51.984;5.652;2023-06-24T02:42:09;19.1;71.5
78793;SHT31;68134;51.984;5.652;2023-06-24T02:44:39;19.1;71.7
78793;SHT31;68134;51.984;5.652;2023-06-24T02:47:11;19.1;71.5
78793;SHT31;68134;51.984;5.652;2023-06-24T02:49:44;19.1;71.4
78793;SHT31;68134;51.984;5.652;2023-06-24T02:52:15;19.1;70.7
78793;SHT31;68134;51.984;5.652;2023-06-24T02:54:44;19.1;70.4
78793;SHT31;68134;51.984;5.652;2023-06-24T02:57:13;19.1;70.2
78793;SHT31;68134;51.984;5.652;2023-06-24T02:59:42;19.1;70.2
78793;SHT31;68134;51.984;5.652;2023-06-24T03:02:11;19.0;70.5
78793;SHT31;68134;51.984;5.652;2023-06-24T03:04:40;19.0;70.7
78793;SHT31;68134;51.984;5.652;2023-06-24T03:07:09;19.0;70.0
78793;SHT31;68134;51.984;5.652;2023-06-24T03:09:39;19.0;70.1
78793;SHT31;68134;51.984;5.652;2023-06-24T03:12:09;19.0;70.2
78793;SHT31;68134;51.984;5.652;2023-06-24T03:14:38;18.9;70.2
78793;SHT31;68134;51.984;5.652;2023-06-24T03:17:06;18.9;70.2
78793;SHT31;68134;51.984;5.652;2023-06-24T03:19:35;18.9;70.8
78793;SHT31;68134;51.984;5.652;2023-06-24T03:22:04;18.9;70.3
78793;SHT31;68134;51.984;5.652;2023-06-24T03:24:32;18.9;70.1
78793;SHT31;68134;51.984;5.652;2023-06-24T03:27:01;18.8;69.9
78793;SHT31;68134;51.984;5.652;2023-06-24T03:29:29;18.8;70.3
78793;SHT31;68134;51.984;5.652;2023-06-24T03:31:58;18.8;70.0
78793;SHT31;68134;51.984;5.652;2023-06-24T03:34:26;18.8;69.9
78793;SHT31;68134;51.984;5.652;2023-06-24T03:36:55;18.8;69.9
78793;SHT31;68134;51.984;5.652;2023-06-24T03:39:24;18.7;69.9
78793;SHT31;68134;51.984;5.652;2023-06-24T03:41:53;18.7;69.7
78793;SHT31;68134;51.984;5.652;2023-06-24T03:44:21;18.7;69.8
78793;SHT31;68134;51.984;5.652;2023-06-24T03:46:50;18.7;69.7
78793;SHT31;68134;51.984;5.652;2023-06-24T03:49:18;18.7;69.7
78793;SHT31;68134;51.984;5.652;2023-06-24T03:51:47;18.6;69.6
78793;SHT31;68134;51.984;5.652;2023-06-24T03:54:15;18.6;69.5
78793;SHT31;68134;51.984;5.652;2023-06-24T03:56:44;18.6;69.7
78793;SHT31;68134;51.984;5.652;2023-06-24T03:59:13;18.6;70.0
78793;SHT31;68134;51.984;5.652;2023-06-24T04:01:41;18.6;70.1
78793;SHT31;68134;51.984;5.652;2023-06-24T04:04:10;18.6;69.9
78793;SHT31;68134;51.984;5.652;2023-06-24T04:06:38;18.5;70.0
78793;SHT31;68134;51.984;5.652;2023-06-24T04:09:07;18.5;70.4
78793;SHT31;68134;51.984;5.652;2023-06-24T04:11:36;18.5;69.9
78793;SHT31;68134;51.984;5.652;2023-06-24T04:14:05;18.5;69.9
78793;SHT31;68134;51.984;5.652;2023-06-24T04:16:38;18.5;70.0
78793;SHT31;68134;51.984;5.652;2023-06-24T04:19:08;18.5;70.1
78793;SHT31;68134;51.984;5.652;2023-06-24T04:21:39;18.5;69.9
78793;SHT31;68134;51.984;5.652;2023-06-24T04:24:07;18.5;70.1
78793;SHT31;68134;51.984;5.652;2023-06-24T04:26:36;18.5;70.2
78793;SHT31;68134;51.984;5.652;2023-06-24T04:29:04;18.5;70.1
78793;SHT31;68134;51.984;5.652;2023-06-24T04:31:33;18.5;70.5
78793;SHT31;68134;51.984;5.652;2023-06-24T04:34:01;18.5;70.7
78793;SHT31;68134;51.984;5.652;2023-06-24T04:36:30;18.5;70.7
78793;SHT31;68134;51.984;5.652;2023-06-24T04:38:59;18.5;70.8
78793;SHT31;68134;51.984;5.652;2023-06-24T04:41:27;18.5;71.0
78793;SHT31;68134;51.984;5.652;2023-06-24T04:43:56;18.5;71.3
78793;SHT31;68134;51.984;5.652;2023-06-24T04:46:24;18.5;71.5
78793;SHT31;68134;51.984;5.652;2023-06-24T04:48:53;18.5;71.9
78793;SHT31;68134;51.984;5.652;2023-06-24T04:51:22;18.5;71.9
78793;SHT31;68134;51.984;5.652;2023-06-24T04:53:50;18.5;72.1
78793;SHT31;68134;51.984;5.652;2023-06-24T04:56:19;18.5;72.7
78793;SHT31;68134;51.984;5.652;2023-06-24T04:58:48;18.6;72.9
78793;SHT31;68134;51.984;5.652;2023-06-24T05:01:19;18.6;72.7
78793;SHT31;68134;51.984;5.652;2023-06-24T05:03:48;18.6;72.6
78793;SHT31;68134;51.984;5.652;2023-06-24T05:06:17;18.7;71.7
78793;SHT31;68134;51.984;5.652;2023-06-24T05:08:45;18.7;71.3
78793;SHT31;68134;51.984;5.652;2023-06-24T05:11:14;18.8;71.4
78793;SHT31;68134;51.984;5.652;2023-06-24T05:13:44;18.8;71.0
78793;SHT31;68134;51.984;5.652;2023-06-24T05:16:13;18.9;71.1
78793;SHT31;68134;51.984;5.652;2023-06-24T05:18:44;19.0;69.2
78793;SHT31;68134;51.984;5.652;2023-06-24T05:21:12;19.2;69.4
78793;SHT31;68134;51.984;5.652;2023-06-24T05:23:41;19.4;67.2
78793;SHT31;68134;51.984;5.652;2023-06-24T05:26:09;19.7;64.8
78793;SHT31;68134;51.984;5.652;2023-06-24T05:28:37;20.0;64.6
78793;SHT31;68134;51.984;5.652;2023-06-24T05:31:06;20.3;65.7
78793;SHT31;68134;51.984;5.652;2023-06-24T05:33:35;20.6;63.5
78793;SHT31;68134;51.984;5.652;2023-06-24T05:36:03;20.9;62.1
78793;SHT31;68134;51.984;5.652;2023-06-24T05:38:32;21.1;61.9
78793;SHT31;68134;51.984;5.652;2023-06-24T05:41:00;21.3;61.9
78793;SHT31;68134;51.984;5.652;2023-06-24T05:43:29;21.4;60.9
78793;SHT31;68134;51.984;5.652;2023-06-24T05:45:58;21.5;59.7
78793;SHT31;68134;51.984;5.652;2023-06-24T05:48:26;21.7;59.8
78793;SHT31;68134;51.984;5.652;2023-06-24T05:50:55;21.8;58.3
78793;SHT31;68134;51.984;5.652;2023-06-24T05:53:23;21.9;58.4
78793;SHT31;68134;51.984;5.652;2023-06-24T05:55:52;22.1;58.3
78793;SHT31;68134;51.984;5.652;2023-06-24T05:58:21;22.2;58.2
78793;SHT31;68134;51.984;5.652;2023-06-24T06:00:50;22.4;57.8
78793;SHT31;68134;51.984;5.652;2023-06-24T06:03:18;22.5;58.7
78793;SHT31;68134;51.984;5.652;2023-06-24T06:05:47;22.7;57.2
78793;SHT31;68134;51.984;5.652;2023-06-24T06:08:16;22.8;57.8
78793;SHT31;68134;51.984;5.652;2023-06-24T06:10:44;23.0;56.3
78793;SHT31;68134;51.984;5.652;2023-06-24T06:13:13;23.2;54.7
78793;SHT31;68134;51.984;5.652;2023-06-24T06:15:41;23.3;55.1
78793;SHT31;68134;51.984;5.652;2023-06-24T06:18:11;23.4;55.5
78793;SHT31;68134;51.984;5.652;2023-06-24T06:20:40;23.6;54.2
78793;SHT31;68134;51.984;5.652;2023-06-24T06:23:08;23.8;54.1
78793;SHT31;68134;51.984;5.652;2023-06-24T06:25:38;23.9;53.3
78793;SHT31;68134;51.984;5.652;2023-06-24T06:28:06;24.0;53.2
78793;SHT31;68134;51.984;5.652;2023-06-24T06:30:35;24.2;52.2
78793;SHT31;68134;51.984;5.652;2023-06-24T06:33:03;24.3;52.8
78793;SHT31;68134;51.984;5.652;2023-06-24T06:35:32;24.5;52.5
78793;SHT31;68134;51.984;5.652;2023-06-24T06:38:00;24.6;51.5
78793;SHT31;68134;51.984;5.652;2023-06-24T06:40:29;24.8;51.2
78793;SHT31;68134;51.984;5.652;2023-06-24T06:42:57;24.9;50.8
78793;SHT31;68134;51.984;5.652;2023-06-24T06:45:26;25.1;50.9
78793;SHT31;68134;51.984;5.652;2023-06-24T06:47:54;25.2;49.2
78793;SHT31;68134;51.984;5.652;2023-06-24T06:50:23;25.4;49.0
78793;SHT31;68134;51.984;5.652;2023-06-24T06:52:51;25.5;49.9
78793;SHT31;68134;51.984;5.652;2023-06-24T06:55:20;25.6;48.8
78793;SHT31;68134;51.984;5.652;2023-06-24T06:57:49;25.7;48.9
78793;SHT31;68134;51.984;5.652;2023-06-24T07:00:18;25.8;47.6
78793;SHT31;68134;51.984;5.652;2023-06-24T07:02:46;26.0;46.3
78793;SHT31;68134;51.984;5.652;2023-06-24T07:05:15;26.1;46.4
78793;SHT31;68134;51.984;5.652;2023-06-24T07:07:44;26.2;47.0
78793;SHT31;68134;51.984;5.652;2023-06-24T07:10:13;26.4;47.0
78793;SHT31;68134;51.984;5.652;2023-06-24T07:12:43;26.6;45.6
78793;SHT31;68134;51.984;5.652;2023-06-24T07:15:14;26.7;45.4
78793;SHT31;68134;51.984;5.652;2023-06-24T07:17:45;26.9;44.0
78793;SHT31;68134;51.984;5.652;2023-06-24T07:20:16;27.0;42.7
78793;SHT31;68134;51.984;5.652;2023-06-24T07:22:44;27.2;42.8
78793;SHT31;68134;51.984;5.652;2023-06-24T07:25:13;27.3;43.1
78793;SHT31;68134;51.984;5.652;2023-06-24T07:27:42;27.5;41.3
78793;SHT31;68134;51.984;5.652;2023-06-24T07:30:11;27.7;41.5
78793;SHT31;68134;51.984;5.652;2023-06-24T07:32:39;27.9;40.7
78793;SHT31;68134;51.984;5.652;2023-06-24T07:35:08;28.0;41.3
78793;SHT31;68134;51.984;5.652;2023-06-24T07:37:39;28.2;40.6
78793;SHT31;68134;51.984;5.652;2023-06-24T07:40:08;28.3;40.0
78793;SHT31;68134;51.984;5.652;2023-06-24T07:42:37;28.5;39.6
78793;SHT31;68134;51.984;5.652;2023-06-24T07:45:06;28.6;40.0
78793;SHT31;68134;51.984;5.652;2023-06-24T07:47:35;28.7;38.3
78793;SHT31;68134;51.984;5.652;2023-06-24T07:50:04;28.9;38.3
78793;SHT31;68134;51.984;5.652;2023-06-24T07:52:32;29.0;38.0
78793;SHT31;68134;51.984;5.652;2023-06-24T07:55:01;29.1;38.3
78793;SHT31;68134;51.984;5.652;2023-06-24T07:57:31;29.3;37.2
78793;SHT31;68134;51.984;5.652;2023-06-24T08:00:00;29.5;36.5
78793;SHT31;68134;51.984;5.652;2023-06-24T08:02:29;29.7;37.1
78793;SHT31;68134;51.984;5.652;2023-06-24T08:04:57;29.9;38.0
78793;SHT31;68134;51.984;5.652;2023-06-24T08:07:26;30.1;35.9
78793;SHT31;68134;51.984;5.652;2023-06-24T08:09:54;30.4;35.6
78793;SHT31;68134;51.984;5.652;2023-06-24T08:12:22;30.6;34.7
78793;SHT31;68134;51.984;5.652;2023-06-24T08:14:51;30.7;34.8
78793;SHT31;68134;51.984;5.652;2023-06-24T08:17:19;30.8;34.7
78793;SHT31;68134;51.984;5.652;2023-06-24T08:19:48;30.9;34.3
78793;SHT31;68134;51.984;5.652;2023-06-24T08:22:17;31.1;32.9
78793;SHT31;68134;51.984;5.652;2023-06-24T08:24:45;31.2;33.7
78793;SHT31;68134;51.984;5.652;2023-06-24T08:27:14;31.3;34.3
78793;SHT31;68134;51.984;5.652;2023-06-24T08:29:43;31.5;33.4
78793;SHT31;68134;51.984;5.652;2023-06-24T08:32:11;31.6;33.4
78793;SHT31;68134;51.984;5.652;2023-06-24T08:34:40;31.7;34.0
78793;SHT31;68134;51.984;5.652;2023-06-24T08:37:08;31.8;33.1
78793;SHT31;68134;51.984;5.652;2023-06-24T08:39:37;32.0;31.4
78793;SHT31;68134;51.984;5.652;2023-06-24T08:42:06;32.2;33.6
78793;SHT31;68134;51.984;5.652;2023-06-24T08:44:34;32.4;33.0
78793;SHT31;68134;51.984;5.652;2023-06-24T08:47:03;32.6;31.6
78793;SHT31;68134;51.984;5.652;2023-06-24T08:49:34;32.7;31.1
78793;SHT31;68134;51.984;5.652;2023-06-24T08:52:08;32.8;30.9
78793;SHT31;68134;51.984;5.652;2023-06-24T08:54:38;32.9;31.5
78793;SHT31;68134;51.984;5.652;2023-06-24T08:57:07;32.9;30.7
78793;SHT31;68134;51.984;5.652;2023-06-24T08:59:41;32.8;31.5
78793;SHT31;68134;51.984;5.652;2023-06-24T09:02:10;32.8;31.2
78793;SHT31;68134;51.984;5.652;2023-06-24T09:04:40;32.7;31.8
78793;SHT31;68134;51.984;5.652;2023-06-24T09:07:09;32.6;32.3
78793;SHT31;68134;51.984;5.652;2023-06-24T09:09:44;32.5;32.3
78793;SHT31;68134;51.984;5.652;2023-06-24T09:12:14;32.4;31.1
78793;SHT31;68134;51.984;5.652;2023-06-24T09:14:48;32.3;32.9
78793;SHT31;68134;51.984;5.652;2023-06-24T09:17:17;32.2;32.8
78793;SHT31;68134;51.984;5.652;2023-06-24T09:19:48;32.2;33.1
78793;SHT31;68134;51.984;5.652;2023-06-24T09:22:17;32.1;31.3
78793;SHT31;68134;51.984;5.652;2023-06-24T09:24:47;32.1;32.7
78793;SHT31;68134;51.984;5.652;2023-06-24T09:27:18;32.1;32.3
78793;SHT31;68134;51.984;5.652;2023-06-24T09:29:50;32.2;34.2
78793;SHT31;68134;51.984;5.652;2023-06-24T09:32:19;32.4;33.0
78793;SHT31;68134;51.984;5.652;2023-06-24T09:34:47;32.7;32.3
78793;SHT31;68134;51.984;5.652;2023-06-24T09:37:22;32.9;32.1
78793;SHT31;68134;51.984;5.652;2023-06-24T09:39:56;33.2;30.8
78793;SHT31;68134;51.984;5.652;2023-06-24T09:42:26;33.5;31.1
78793;SHT31;68134;51.984;5.652;2023-06-24T09:44:54;33.7;30.8
78793;SHT31;68134;51.984;5.652;2023-06-24T09:47:24;33.8;30.9
78793;SHT31;68134;51.984;5.652;2023-06-24T09:49:55;33.9;30.9
78793;SHT31;68134;51.984;5.652;2023-06-24T09:52:25;34.0;30.1
78793;SHT31;68134;51.984;5.652;2023-06-24T09:54:56;34.0;31.3
78793;SHT31;68134;51.984;5.652;2023-06-24T09:57:29;34.1;31.6
78793;SHT31;68134;51.984;5.652;2023-06-24T10:00:00;34.2;30.9
78793;SHT31;68134;51.984;5.652;2023-06-24T10:02:31;34.3;32.5
78793;SHT31;68134;51.984;5.652;2023-06-24T10:05:01;34.4;29.6
78793;SHT31;68134;51.984;5.652;2023-06-24T10:07:32;34.5;30.6
78793;SHT31;68134;51.984;5.652;2023-06-24T10:10:03;34.5;30.8
78793;SHT31;68134;51.984;5.652;2023-06-24T10:12:34;34.5;30.2
78793;SHT31;68134;51.984;5.652;2023-06-24T10:15:04;34.6;30.3
78793;SHT31;68134;51.984;5.652;2023-06-24T10:17:33;34.7;30.4
78793;SHT31;68134;51.984;5.652;2023-06-24T10:20:05;34.8;30.1
78793;SHT31;68134;51.984;5.652;2023-06-24T10:22:36;34.8;30.6
78793;SHT31;68134;51.984;5.652;2023-06-24T10:25:06;34.9;29.6
78793;SHT31;68134;51.984;5.652;2023-06-24T10:27:40;35.0;30.0
78793;SHT31;68134;51.984;5.652;2023-06-24T10:30:18;35.2;30.6
78793;SHT31;68134;51.984;5.652;2023-06-24T10:32:52;35.3;30.4
78793;SHT31;68134;51.984;5.652;2023-06-24T10:35:26;35.4;29.8
78793;SHT31;68134;51.984;5.652;2023-06-24T10:37:58;35.5;29.7
78793;SHT31;68134;51.984;5.652;2023-06-24T10:40:37;35.6;31.6
78793;SHT31;68134;51.984;5.652;2023-06-24T10:43:26;35.7;29.0
78793;SHT31;68134;51.984;5.652;2023-06-24T10:45:57;35.8;29.0
78793;SHT31;68134;51.984;5.652;2023-06-24T10:48:26;35.9;28.2
78793;SHT31;68134;51.984;5.652;2023-06-24T10:50:57;35.9;28.8
78793;SHT31;68134;51.984;5.652;2023-06-24T10:53:28;36.0;29.7
78793;SHT31;68134;51.984;5.652;2023-06-24T10:55:59;36.0;29.2
78793;SHT31;68134;51.984;5.652;2023-06-24T10:58:27;36.1;29.7
78793;SHT31;68134;51.984;5.652;2023-06-24T11:01:09;36.2;29.6
78793;SHT31;68134;51.984;5.652;2023-06-24T11:03:39;36.3;28.5
78793;SHT31;68134;51.984;5.652;2023-06-24T11:06:10;36.4;28.5
78793;SHT31;68134;51.984;5.652;2023-06-24T11:08:44;36.5;29.2
78793;SHT31;68134;51.984;5.652;2023-06-24T11:11:20;36.5;29.6
78793;SHT31;68134;51.984;5.652;2023-06-24T11:13:50;36.6;28.4
78793;SHT31;68134;51.984;5.652;2023-06-24T11:16:21;36.6;28.9
78793;SHT31;68134;51.984;5.652;2023-06-24T11:18:50;36.7;28.5
78793;SHT31;68134;51.984;5.652;2023-06-24T11:21:19;36.7;28.6
78793;SHT31;68134;51.984;5.652;2023-06-24T11:23:47;36.7;28.3
78793;SHT31;68134;51.984;5.652;2023-06-24T11:26:17;36.7;28.5
78793;SHT31;68134;51.984;5.652;2023-06-24T11:28:47;36.8;29.3
78793;SHT31;68134;51.984;5.652;2023-06-24T11:31:16;36.9;28.6
78793;SHT31;68134;51.984;5.652;2023-06-24T11:33:48;36.9;28.5
78793;SHT31;68134;51.984;5.652;2023-06-24T11:36:18;37.0;27.6
78793;SHT31;68134;51.984;5.652;2023-06-24T11:38:48;37.0;27.9
78793;SHT31;68134;51.984;5.652;2023-06-24T11:41:22;37.1;28.3
78793;SHT31;68134;51.984;5.652;2023-06-24T11:43:52;37.2;28.5
78793;SHT31;68134;51.984;5.652;2023-06-24T11:46:24;37.3;27.6
78793;SHT31;68134;51.984;5.652;2023-06-24T11:49:04;37.3;26.9
78793;SHT31;68134;51.984;5.652;2023-06-24T11:51:34;37.4;26.9
78793;SHT31;68134;51.984;5.652;2023-06-24T11:54:04;37.5;28.1
78793;SHT31;68134;51.984;5.652;2023-06-24T11:56:37;37.6;27.2
78793;SHT31;68134;51.984;5.652;2023-06-24T11:59:06;37.6;27.9
78793;SHT31;68134;51.984;5.652;2023-06-24T12:01:35;37.6;28.2
78793;SHT31;68134;51.984;5.652;2023-06-24T12:04:11;37.7;27.7
78793;SHT31;68134;51.984;5.652;2023-06-24T12:06:40;37.7;27.3
78793;SHT31;68134;51.984;5.652;2023-06-24T12:09:09;37.8;27.9
78793;SHT31;68134;51.984;5.652;2023-06-24T12:11:39;37.8;27.6
78793;SHT31;68134;51.984;5.652;2023-06-24T12:14:07;37.9;28.7
78793;SHT31;68134;51.984;5.652;2023-06-24T12:16:36;37.9;27.4
78793;SHT31;68134;51.984;5.652;2023-06-24T12:19:04;38.0;27.6
78793;SHT31;68134;51.984;5.652;2023-06-24T12:21:33;38.1;26.6
78793;SHT31;68134;51.984;5.652;2023-06-24T12:24:02;38.2;27.3
78793;SHT31;68134;51.984;5.652;2023-06-24T12:26:31;38.3;25.7
78793;SHT31;68134;51.984;5.652;2023-06-24T12:29:00;38.5;27.9
78793;SHT31;68134;51.984;5.652;2023-06-24T12:31:28;38.6;25.5
78793;SHT31;68134;51.984;5.652;2023-06-24T12:33:57;38.7;25.5
78793;SHT31;68134;51.984;5.652;2023-06-24T12:36:26;38.7;26.0
78793;SHT31;68134;51.984;5.652;2023-06-24T12:38:54;38.8;25.9
78793;SHT31;68134;51.984;5.652;2023-06-24T12:41:23;38.8;26.2
78793;SHT31;68134;51.984;5.652;2023-06-24T12:43:53;38.8;25.4
78793;SHT31;68134;51.984;5.652;2023-06-24T12:46:22;38.9;25.9
78793;SHT31;68134;51.984;5.652;2023-06-24T12:48:50;39.0;25.8
78793;SHT31;68134;51.984;5.652;2023-06-24T12:51:18;39.1;25.1
78793;SHT31;68134;51.984;5.652;2023-06-24T12:53:47;39.1;26.0
78793;SHT31;68134;51.984;5.652;2023-06-24T12:56:15;39.1;25.5
78793;SHT31;68134;51.984;5.652;2023-06-24T12:58:44;39.0;24.6
78793;SHT31;68134;51.984;5.652;2023-06-24T13:01:12;39.0;25.4
78793;SHT31;68134;51.984;5.652;2023-06-24T13:03:41;39.0;25.7
78793;SHT31;68134;51.984;5.652;2023-06-24T13:06:09;39.0;26.9
78793;SHT31;68134;51.984;5.652;2023-06-24T13:08:38;39.0;26.1
78793;SHT31;68134;51.984;5.652;2023-06-24T13:11:08;39.0;25.9
78793;SHT31;68134;51.984;5.652;2023-06-24T13:13:37;38.9;26.5
78793;SHT31;68134;51.984;5.652;2023-06-24T13:16:08;38.9;25.4
78793;SHT31;68134;51.984;5.652;2023-06-24T13:18:36;38.8;24.9
78793;SHT31;68134;51.984;5.652;2023-06-24T13:21:05;38.7;25.3
78793;SHT31;68134;51.984;5.652;2023-06-24T13:23:33;38.6;26.0
78793;SHT31;68134;51.984;5.652;2023-06-24T13:26:03;38.4;24.5
78793;SHT31;68134;51.984;5.652;2023-06-24T13:28:32;38.3;25.2
78793;SHT31;68134;51.984;5.652;2023-06-24T13:31:00;38.2;25.8
78793;SHT31;68134;51.984;5.652;2023-06-24T13:33:29;38.0;27.3
78793;SHT31;68134;51.984;5.652;2023-06-24T13:35:57;37.8;27.0
78793;SHT31;68134;51.984;5.652;2023-06-24T13:38:26;37.6;27.5
78793;SHT31;68134;51.984;5.652;2023-06-24T13:40:54;37.5;27.9
78793;SHT31;68134;51.984;5.652;2023-06-24T13:43:23;37.3;28.1
78793;SHT31;68134;51.984;5.652;2023-06-24T13:45:53;37.2;27.5
78793;SHT31;68134;51.984;5.652;2023-06-24T13:48:21;37.0;28.8
78793;SHT31;68134;51.984;5.652;2023-06-24T13:50:50;36.8;28.3
78793;SHT31;68134;51.984;5.652;2023-06-24T13:53:18;36.7;27.5
78793;SHT31;68134;51.984;5.652;2023-06-24T13:55:47;36.5;27.1
78793;SHT31;68134;51.984;5.652;2023-06-24T13:58:15;36.3;27.4
78793;SHT31;68134;51.984;5.652;2023-06-24T14:00:44;36.0;28.4
78793;SHT31;68134;51.984;5.652;2023-06-24T14:03:12;35.8;29.7
78793;SHT31;68134;51.984;5.652;2023-06-24T14:05:41;35.7;30.8
78793;SHT31;68134;51.984;5.652;2023-06-24T14:08:09;35.6;30.2
78793;SHT31;68134;51.984;5.652;2023-06-24T14:10:38;35.6;30.8
78793;SHT31;68134;51.984;5.652;2023-06-24T14:13:07;35.5;31.0
78793;SHT31;68134;51.984;5.652;2023-06-24T14:15:36;35.5;31.2
78793;SHT31;68134;51.984;5.652;2023-06-24T14:18:04;35.4;29.7
78793;SHT31;68134;51.984;5.652;2023-06-24T14:20:33;35.4;30.5
78793;SHT31;68134;51.984;5.652;2023-06-24T14:23:01;35.3;30.8
78793;SHT31;68134;51.984;5.652;2023-06-24T14:25:30;35.2;31.0
78793;SHT31;68134;51.984;5.652;2023-06-24T14:27:59;35.1;30.0
78793;SHT31;68134;51.984;5.652;2023-06-24T14:30:27;35.1;31.0
78793;SHT31;68134;51.984;5.652;2023-06-24T14:32:56;35.1;31.8
78793;SHT31;68134;51.984;5.652;2023-06-24T14:35:24;35.1;30.5
78793;SHT31;68134;51.984;5.652;2023-06-24T14:37:53;35.0;30.7
78793;SHT31;68134;51.984;5.652;2023-06-24T14:40:21;35.0;31.1
78793;SHT31;68134;51.984;5.652;2023-06-24T14:42:50;34.9;31.9
78793;SHT31;68134;51.984;5.652;2023-06-24T14:45:18;34.9;30.4
78793;SHT31;68134;51.984;5.652;2023-06-24T14:47:47;34.8;31.6
78793;SHT31;68134;51.984;5.652;2023-06-24T14:50:17;34.7;31.4
78793;SHT31;68134;51.984;5.652;2023-06-24T14:52:45;34.6;31.7
78793;SHT31;68134;51.984;5.652;2023-06-24T14:55:14;34.5;31.6
78793;SHT31;68134;51.984;5.652;2023-06-24T14:57:44;34.4;32.0
78793;SHT31;68134;51.984;5.652;2023-06-24T15:00:13;34.3;32.1
78793;SHT31;68134;51.984;5.652;2023-06-24T15:02:42;34.2;31.7
78793;SHT31;68134;51.984;5.652;2023-06-24T15:05:12;34.2;32.5
78793;SHT31;68134;51.984;5.652;2023-06-24T15:07:41;34.2;32.6
78793;SHT31;68134;51.984;5.652;2023-06-24T15:10:09;34.1;32.6
78793;SHT31;68134;51.984;5.652;2023-06-24T15:12:38;34.1;32.5
78793;SHT31;68134;51.984;5.652;2023-06-24T15:15:07;34.1;34.0
78793;SHT31;68134;51.984;5.652;2023-06-24T15:17:36;34.0;33.2
78793;SHT31;68134;51.984;5.652;2023-06-24T15:20:07;34.0;34.5
78793;SHT31;68134;51.984;5.652;2023-06-24T15:22:37;34.0;33.8
78793;SHT31;68134;51.984;5.652;2023-06-24T15:25:06;34.0;32.5
78793;SHT31;68134;51.984;5.652;2023-06-24T15:27:35;34.0;33.3
78793;SHT31;68134;51.984;5.652;2023-06-24T15:30:04;33.9;33.3
78793;SHT31;68134;51.984;5.652;2023-06-24T15:32:33;33.9;34.6
78793;SHT31;68134;51.984;5.652;2023-06-24T15:35:03;33.9;32.6
78793;SHT31;68134;51.984;5.652;2023-06-24T15:37:32;33.8;33.1
78793;SHT31;68134;51.984;5.652;2023-06-24T15:40:01;33.8;33.6
78793;SHT31;68134;51.984;5.652;2023-06-24T15:42:29;33.8;33.4
78793;SHT31;68134;51.984;5.652;2023-06-24T15:44:58;33.7;33.0
78793;SHT31;68134;51.984;5.652;2023-06-24T15:47:27;33.7;33.2
78793;SHT31;68134;51.984;5.652;2023-06-24T15:49:56;33.7;33.9
78793;SHT31;68134;51.984;5.652;2023-06-24T15:52:24;33.6;33.1
78793;SHT31;68134;51.984;5.652;2023-06-24T15:54:53;33.6;32.8
78793;SHT31;68134;51.984;5.652;2023-06-24T15:57:23;33.5;33.7
78793;SHT31;68134;51.984;5.652;2023-06-24T15:59:51;33.5;33.7
78793;SHT31;68134;51.984;5.652;2023-06-24T16:02:20;33.4;34.5
78793;SHT31;68134;51.984;5.652;2023-06-24T16:04:48;33.4;33.8
78793;SHT31;68134;51.984;5.652;2023-06-24T16:07:17;33.4;33.5
78793;SHT31;68134;51.984;5.652;2023-06-24T16:09:45;33.3;34.3
78793;SHT31;68134;51.984;5.652;2023-06-24T16:12:14;33.3;34.4
78793;SHT31;68134;51.984;5.652;2023-06-24T16:14:43;33.3;34.1
78793;SHT31;68134;51.984;5.652;2023-06-24T16:17:11;33.2;33.9
78793;SHT31;68134;51.984;5.652;2023-06-24T16:19:40;33.1;35.1